Time;durP1;ratioP1;P1;durP2;ratioP2;P2;SDS_P1;SDS_P2;PMS_P1;PMS_P2;Temp;Humidity;BMP_temperature;BMP_pressure;BME280_temperature;BME280_humidity;BME280_pressure;Samples;Min_cycle;Max_cycle;Signal;HPM_P1;HPM_P2
2023/10/19 00:00:38;;;;;;;0.40;0.40;;;11.60;99.90;;;;;;5052108;28;20029;-79
2023/10/19 00:03:06;;;;;;;0.30;0.30;;;11.70;99.90;;;;;;5051886;28;20120;-79
2023/10/19 00:05:32;;;;;;;0.90;0.50;;;11.70;99.90;;;;;;5054831;28;20388;-79
2023/10/19 00:08:00;;;;;;;0.30;0.30;;;11.70;99.90;;;;;;5052924;28;20024;-79
2023/10/19 00:10:32;;;;;;;0.40;0.40;;;11.80;99.90;;;;;;5054280;28;20472;-80
2023/10/19 00:13:03;;;;;;;0.40;0.40;;;11.80;99.90;;;;;;5034343;28;20067;-79
2023/10/19 00:15:32;;;;;;;0.30;0.30;;;11.90;99.90;;;;;;5057900;28;20522;-80
2023/10/19 00:18:06;;;;;;;0.30;0.30;;;11.90;99.90;;;;;;5035811;28;20090;-79
2023/10/19 00:23:28;;;;;;;0.20;0.20;;;11.90;99.90;;;;;;5051133;28;20028;-81
2023/10/19 00:25:56;;;;;;;0.40;0.40;;;11.90;99.90;;;;;;5053943;28;20104;-79
2023/10/19 00:28:30;;;;;;;0.50;0.50;;;11.90;99.90;;;;;;5036486;28;20074;-79
2023/10/19 00:31:04;;;;;;;1.10;0.75;;;12.00;99.90;;;;;;5037113;28;20025;-79
2023/10/19 00:33:32;;;;;;;0.30;0.30;;;12.00;99.90;;;;;;5053603;28;20021;-79
2023/10/19 00:36:07;;;;;;;0.47;0.47;;;12.10;99.90;;;;;;5052008;28;20021;-79
2023/10/19 00:43:46;;;;;;;0.40;0.40;;;12.10;99.90;;;;;;5053496;28;20460;-80
2023/10/19 00:48:54;;;;;;;0.60;0.60;;;12.10;99.90;;;;;;5055296;28;20491;-79
2023/10/19 00:54:09;;;;;;;0.68;0.68;;;12.10;99.90;;;;;;5054159;28;20023;-78
2023/10/19 00:56:35;;;;;;;0.40;0.40;;;12.10;99.90;;;;;;5035369;28;20429;-80
2023/10/19 01:01:48;;;;;;;0.60;0.60;;;12.20;99.90;;;;;;5055071;28;20071;-80
2023/10/19 01:04:16;;;;;;;0.20;0.20;;;12.20;99.90;;;;;;5037036;28;20098;-79
2023/10/19 01:06:58;;;;;;;0.30;0.30;;;12.20;99.90;;;;;;5041484;28;20028;-79
2023/10/19 01:09:27;;;;;;;0.30;0.30;;;12.20;99.90;;;;;;5055481;28;20611;-79
2023/10/19 01:11:53;;;;;;;0.20;0.20;;;12.30;99.90;;;;;;5054828;28;20024;-80
2023/10/19 01:14:27;;;;;;;0.55;0.55;;;12.30;99.90;;;;;;5055626;28;20047;-79
2023/10/19 01:16:59;;;;;;;0.40;0.40;;;12.30;99.90;;;;;;5052978;28;20468;-79
2023/10/19 01:19:27;;;;;;;;;;;12.40;99.90;;;;;;5054575;28;20036;-79
2023/10/19 01:21:58;;;;;;;0.20;0.20;;;12.40;99.90;;;;;;5055415;28;19995;-79
2023/10/19 01:24:42;;;;;;;0.40;0.40;;;12.40;99.90;;;;;;5056105;28;20476;-79
2023/10/19 01:27:10;;;;;;;0.85;0.85;;;12.50;99.90;;;;;;5036074;28;20053;-79
2023/10/19 01:29:38;;;;;;;0.20;0.20;;;12.40;99.90;;;;;;5051966;28;20017;-79
2023/10/19 01:32:08;;;;;;;0.22;0.22;;;12.50;99.90;;;;;;5037238;28;20028;-80
2023/10/19 01:34:34;;;;;;;0.20;0.20;;;12.50;99.90;;;;;;5050699;28;20111;-79
2023/10/19 01:37:06;;;;;;;0.40;0.40;;;12.60;99.90;;;;;;5053714;28;20043;-79
2023/10/19 01:39:38;;;;;;;0.30;0.30;;;12.70;99.90;;;;;;5029763;28;20031;-79
2023/10/19 01:42:04;;;;;;;0.30;0.30;;;12.80;99.90;;;;;;5043301;28;20107;-79
2023/10/19 01:44:31;;;;;;;0.93;0.93;;;12.80;99.90;;;;;;5040061;28;20732;-79
2023/10/19 01:46:57;;;;;;;0.30;0.30;;;12.90;99.90;;;;;;5058990;28;20024;-79
2023/10/19 01:49:28;;;;;;;0.70;0.70;;;13.00;99.90;;;;;;5057988;28;20095;-80
2023/10/19 01:51:54;;;;;;;0.90;0.90;;;13.00;99.90;;;;;;5039578;28;20390;-79
2023/10/19 01:54:25;;;;;;;0.30;0.30;;;13.00;99.90;;;;;;5046406;28;20020;-80
2023/10/19 01:56:56;;;;;;;0.30;0.30;;;13.10;99.90;;;;;;5039310;28;20890;-79
2023/10/19 01:59:27;;;;;;;0.40;0.40;;;13.20;99.90;;;;;;5056365;28;20432;-80
2023/10/19 02:01:54;;;;;;;0.30;0.30;;;13.20;99.90;;;;;;5054832;28;20025;-79
2023/10/19 02:04:21;;;;;;;0.80;0.80;;;13.30;99.90;;;;;;5039288;28;20036;-80
2023/10/19 02:06:48;;;;;;;1.00;0.75;;;13.40;99.90;;;;;;5040207;28;20020;-82
2023/10/19 02:09:17;;;;;;;0.60;0.60;;;13.50;99.90;;;;;;5060374;28;20090;-79
2023/10/19 02:11:47;;;;;;;0.90;0.75;;;13.50;99.90;;;;;;5057851;28;20020;-79
2023/10/19 02:14:16;;;;;;;0.35;0.35;;;13.60;99.90;;;;;;5053247;28;20190;-79
2023/10/19 02:16:52;;;;;;;0.40;0.40;;;13.60;99.90;;;;;;5059137;28;20103;-80
2023/10/19 02:19:22;;;;;;;0.30;0.30;;;13.60;99.90;;;;;;5060381;28;20036;-80
2023/10/19 02:21:49;;;;;;;0.25;0.25;;;13.70;99.90;;;;;;5059075;28;20086;-80
2023/10/19 02:24:15;;;;;;;0.50;0.50;;;13.70;99.90;;;;;;5047386;28;20020;-80
2023/10/19 02:26:46;;;;;;;0.43;0.43;;;13.70;99.90;;;;;;5041909;28;20503;-79
2023/10/19 02:29:13;;;;;;;0.50;0.50;;;13.80;99.90;;;;;;5054189;28;20032;-79
2023/10/19 02:31:42;;;;;;;0.30;0.30;;;13.80;99.90;;;;;;5057120;28;20532;-80
2023/10/19 02:34:10;;;;;;;0.30;0.30;;;13.80;99.90;;;;;;5057010;28;20029;-79
2023/10/19 02:36:37;;;;;;;0.45;0.45;;;13.80;99.90;;;;;;5056495;28;20019;-80
2023/10/19 02:39:10;;;;;;;0.50;0.50;;;13.80;99.90;;;;;;5054144;28;20081;-80
2023/10/19 02:41:41;;;;;;;0.38;0.38;;;13.80;99.90;;;;;;5056485;28;20477;-80
2023/10/19 02:46:42;;;;;;;0.52;0.52;;;13.80;99.90;;;;;;5058396;28;20029;-79
2023/10/19 02:49:13;;;;;;;0.30;0.30;;;13.90;99.90;;;;;;5060193;28;20522;-79
2023/10/19 02:51:40;;;;;;;0.40;0.40;;;13.90;99.90;;;;;;5041074;28;20308;-78
2023/10/19 02:54:07;;;;;;;0.38;0.38;;;13.90;99.90;;;;;;5044660;28;20050;-80
2023/10/19 02:56:35;;;;;;;0.70;0.70;;;13.90;99.90;;;;;;5035281;28;20513;-80
2023/10/19 02:59:03;;;;;;;0.20;0.20;;;13.90;99.90;;;;;;5056511;28;20028;-79
2023/10/19 03:01:31;;;;;;;0.45;0.45;;;13.90;99.90;;;;;;5039256;28;20051;-79
2023/10/19 03:03:59;;;;;;;0.43;0.43;;;13.80;99.90;;;;;;5055697;28;20060;-79
2023/10/19 03:06:31;;;;;;;0.40;0.40;;;13.90;99.90;;;;;;5058094;28;20511;-79
2023/10/19 03:09:22;;;;;;;0.75;0.43;;;13.90;99.90;;;;;;5039406;28;20128;-79
2023/10/19 03:11:52;;;;;;;0.65;0.65;;;14.00;99.90;;;;;;5057946;28;20012;-79
2023/10/19 03:14:18;;;;;;;0.77;0.77;;;14.00;99.90;;;;;;5058582;28;20059;-79
2023/10/19 03:16:43;;;;;;;0.50;0.50;;;14.00;99.90;;;;;;5054201;28;20064;-79
2023/10/19 03:19:09;;;;;;;0.30;0.30;;;14.10;99.90;;;;;;5055808;28;20059;-80
2023/10/19 03:21:48;;;;;;;0.55;0.55;;;14.10;99.90;;;;;;5038587;28;20119;-79
2023/10/19 03:27:22;;;;;;;0.38;0.38;;;14.20;99.90;;;;;;5044550;28;20032;-79
2023/10/19 03:29:56;;;;;;;0.50;0.50;;;14.10;99.90;;;;;;5039104;28;20031;-79
2023/10/19 03:32:26;;;;;;;0.70;0.70;;;14.10;99.90;;;;;;5060054;28;20031;-80
2023/10/19 03:34:55;;;;;;;0.45;0.45;;;14.10;99.90;;;;;;5055009;28;20023;-79
2023/10/19 03:37:25;;;;;;;0.38;0.38;;;14.10;99.90;;;;;;5055656;28;20020;-79
2023/10/19 03:39:51;;;;;;;0.40;0.40;;;14.20;99.90;;;;;;5053186;28;20048;-79
2023/10/19 03:42:17;;;;;;;0.30;0.30;;;14.20;99.90;;;;;;5052027;28;20098;-80
2023/10/19 03:44:53;;;;;;;0.40;0.40;;;14.20;99.90;;;;;;5054031;28;20033;-79
2023/10/19 03:47:20;;;;;;;0.55;0.55;;;14.30;99.90;;;;;;5059266;28;20123;-79
2023/10/19 03:49:50;;;;;;;0.50;0.50;;;14.30;99.90;;;;;;5055404;28;20032;-79
2023/10/19 03:54:41;;;;;;;0.30;0.30;;;14.20;99.90;;;;;;5054528;28;20672;-87
2023/10/19 03:57:12;;;;;;;0.40;0.40;;;14.30;99.90;;;;;;5035376;28;20025;-79
2023/10/19 03:59:41;;;;;;;0.63;0.63;;;14.40;99.90;;;;;;5052287;28;20100;-79
2023/10/19 04:02:12;;;;;;;0.40;0.40;;;14.40;99.90;;;;;;5052005;28;20428;-79
2023/10/19 04:04:43;;;;;;;0.57;0.57;;;14.40;99.90;;;;;;5037816;28;20017;-79
2023/10/19 04:07:20;;;;;;;0.30;0.30;;;14.40;99.90;;;;;;5034412;28;20031;-79
2023/10/19 04:12:41;;;;;;;0.55;0.55;;;14.50;99.90;;;;;;5041152;28;20551;-78
2023/10/19 04:15:17;;;;;;;0.50;0.50;;;14.60;99.90;;;;;;5061091;28;20043;-79
2023/10/19 04:17:48;;;;;;;0.40;0.40;;;14.60;99.90;;;;;;5035051;28;20027;-82
2023/10/19 04:22:45;;;;;;;0.40;0.40;;;14.60;99.90;;;;;;5056977;28;20021;-82
2023/10/19 04:25:13;;;;;;;0.30;0.30;;;14.60;99.90;;;;;;5052640;28;20134;-81
2023/10/19 04:27:43;;;;;;;0.70;0.70;;;14.60;99.90;;;;;;5035408;28;20025;-81
2023/10/19 04:30:21;;;;;;;0.25;0.25;;;14.60;99.90;;;;;;5053948;28;20518;-82
2023/10/19 04:32:49;;;;;;;0.93;0.68;;;14.60;99.90;;;;;;5037740;28;20052;-81
2023/10/19 04:35:21;;;;;;;0.40;0.40;;;14.70;99.90;;;;;;5058469;28;20043;-82
2023/10/19 04:37:47;;;;;;;1.30;0.30;;;14.70;99.90;;;;;;5035147;28;20071;-81
2023/10/19 04:40:15;;;;;;;0.40;0.40;;;14.70;99.90;;;;;;5054195;28;20305;-82
2023/10/19 04:42:41;;;;;;;2.30;0.40;;;14.70;99.90;;;;;;5053336;28;20021;-82
2023/10/19 04:45:07;;;;;;;0.43;0.43;;;14.70;99.90;;;;;;5033335;28;20029;-81
2023/10/19 04:47:35;;;;;;;0.20;0.20;;;14.60;99.90;;;;;;5053967;28;20040;-82
2023/10/19 04:50:02;;;;;;;0.35;0.35;;;14.70;99.90;;;;;;5042646;28;20017;-82
2023/10/19 04:52:28;;;;;;;0.52;0.52;;;14.70;99.90;;;;;;5052685;28;20021;-82
2023/10/19 04:55:01;;;;;;;0.30;0.30;;;14.70;99.90;;;;;;5032223;28;20029;-82
2023/10/19 04:57:30;;;;;;;0.50;0.50;;;14.80;99.90;;;;;;5050674;28;20032;-82
2023/10/19 04:59:58;;;;;;;0.38;0.38;;;14.80;99.90;;;;;;5055969;28;20059;-82
2023/10/19 05:02:24;;;;;;;0.40;0.40;;;14.80;99.90;;;;;;5055151;28;20029;-81
2023/10/19 05:04:50;;;;;;;0.30;0.30;;;14.80;99.90;;;;;;5054111;28;20547;-82
2023/10/19 05:07:18;;;;;;;0.30;0.30;;;14.80;99.90;;;;;;5054291;28;20025;-82
2023/10/19 05:09:45;;;;;;;0.30;0.30;;;14.80;99.90;;;;;;5052905;28;20025;-82
2023/10/19 05:12:11;;;;;;;0.40;0.40;;;14.80;99.90;;;;;;5051492;28;20025;-82
2023/10/19 05:14:41;;;;;;;0.30;0.30;;;14.80;99.90;;;;;;5054722;28;20025;-81
2023/10/19 05:17:13;;;;;;;0.22;0.22;;;14.90;99.90;;;;;;5036986;28;20044;-82
2023/10/19 05:19:40;;;;;;;0.40;0.40;;;14.80;99.90;;;;;;5057548;28;20088;-81
2023/10/19 05:22:07;;;;;;;0.38;0.38;;;14.90;99.90;;;;;;5037765;28;20064;-80
2023/10/19 05:24:33;;;;;;;0.30;0.30;;;14.90;99.90;;;;;;5058768;28;20017;-81
2023/10/19 05:26:58;;;;;;;0.40;0.40;;;14.80;99.90;;;;;;5055601;28;20656;-80
2023/10/19 05:29:24;;;;;;;0.60;0.60;;;14.90;99.90;;;;;;5057250;28;20036;-81
2023/10/19 05:31:53;;;;;;;0.40;0.40;;;14.90;99.90;;;;;;5060659;28;20492;-80
2023/10/19 05:34:20;;;;;;;0.40;0.40;;;14.80;99.90;;;;;;5054630;28;20052;-82
2023/10/19 05:36:48;;;;;;;0.52;0.52;;;14.90;99.90;;;;;;5046896;28;20025;-81
2023/10/19 05:39:15;;;;;;;0.40;0.40;;;14.90;99.90;;;;;;5057915;28;20165;-81
2023/10/19 05:41:40;;;;;;;0.50;0.50;;;14.90;99.90;;;;;;5047415;28;20044;-83
2023/10/19 05:44:06;;;;;;;0.40;0.40;;;14.80;99.90;;;;;;5054472;28;20029;-82
2023/10/19 05:46:34;;;;;;;0.30;0.30;;;14.90;99.90;;;;;;5046817;28;20031;-79
2023/10/19 05:49:03;;;;;;;0.40;0.40;;;14.90;99.90;;;;;;5055211;28;20388;-81
2023/10/19 05:51:31;;;;;;;0.57;0.57;;;14.90;99.90;;;;;;5058370;28;20027;-81
2023/10/19 05:54:01;;;;;;;0.30;0.30;;;14.90;99.90;;;;;;5055487;28;20273;-80
2023/10/19 05:56:30;;;;;;;0.47;0.47;;;15.00;99.90;;;;;;5058266;28;20047;-81
2023/10/19 05:58:57;;;;;;;0.40;0.40;;;15.00;99.90;;;;;;5063248;28;20023;-81
2023/10/19 06:01:23;;;;;;;0.50;0.50;;;15.00;99.90;;;;;;5043151;28;20480;-81
2023/10/19 06:03:49;;;;;;;0.30;0.30;;;14.90;99.90;;;;;;5039645;28;20314;-80
2023/10/19 06:06:14;;;;;;;0.30;0.30;;;14.90;99.90;;;;;;5057819;28;20059;-81
2023/10/19 06:08:40;;;;;;;0.35;0.35;;;14.80;99.90;;;;;;5048101;28;20049;-81
2023/10/19 06:11:06;;;;;;;0.30;0.30;;;14.90;99.90;;;;;;5055711;28;20080;-80
2023/10/19 06:13:32;;;;;;;0.40;0.40;;;14.90;99.90;;;;;;5058626;28;20107;-81
2023/10/19 06:15:57;;;;;;;0.35;0.35;;;14.80;99.90;;;;;;5054134;28;20115;-81
2023/10/19 06:18:23;;;;;;;0.43;0.43;;;14.90;99.90;;;;;;5059021;28;20423;-81
2023/10/19 06:20:51;;;;;;;0.40;0.40;;;14.70;99.90;;;;;;5037361;28;20055;-81
2023/10/19 06:23:17;;;;;;;0.57;0.57;;;14.80;99.90;;;;;;5033395;28;20559;-81
2023/10/19 06:25:44;;;;;;;0.40;0.40;;;14.80;99.90;;;;;;5054333;28;20052;-80
2023/10/19 06:28:11;;;;;;;0.50;0.50;;;14.80;99.90;;;;;;5036129;28;20021;-83
2023/10/19 06:30:37;;;;;;;0.38;0.38;;;14.90;99.90;;;;;;5053686;28;20017;-81
2023/10/19 06:33:03;;;;;;;0.30;0.30;;;14.90;99.90;;;;;;5058135;28;20472;-81
2023/10/19 06:35:31;;;;;;;0.40;0.40;;;14.80;99.90;;;;;;5044791;28;20407;-80
2023/10/19 06:38:00;;;;;;;0.43;0.43;;;14.80;99.90;;;;;;5070166;28;20028;-81
2023/10/19 06:40:29;;;;;;;0.35;0.35;;;14.80;99.90;;;;;;5061311;28;20017;-81
2023/10/19 06:42:58;;;;;;;0.30;0.30;;;14.90;99.90;;;;;;5076746;28;20040;-81
2023/10/19 06:45:25;;;;;;;0.30;0.30;;;14.80;99.90;;;;;;5061224;28;20028;-81
2023/10/19 06:47:52;;;;;;;0.40;0.40;;;14.80;99.90;;;;;;5043322;28;20024;-81
2023/10/19 06:50:22;;;;;;;0.95;0.40;;;14.90;99.90;;;;;;5052978;28;20029;-81
2023/10/19 06:52:50;;;;;;;0.30;0.30;;;14.80;99.90;;;;;;5055272;28;20457;-81
2023/10/19 06:55:19;;;;;;;0.40;0.40;;;14.80;99.90;;;;;;5038144;28;20116;-81
2023/10/19 06:57:52;;;;;;;0.30;0.30;;;14.90;99.90;;;;;;5053084;28;20104;-81
2023/10/19 07:00:21;;;;;;;0.80;0.80;;;14.90;99.90;;;;;;5055072;28;20032;-83
2023/10/19 07:02:51;;;;;;;0.50;0.50;;;14.90;99.90;;;;;;5053378;28;20143;-80
2023/10/19 07:05:23;;;;;;;0.90;0.90;;;15.00;99.90;;;;;;5054431;28;20040;-83
2023/10/19 07:07:51;;;;;;;0.43;0.43;;;15.00;99.90;;;;;;5052689;28;20130;-81
2023/10/19 07:10:18;;;;;;;0.30;0.30;;;15.00;99.90;;;;;;5056083;28;20027;-81
2023/10/19 07:12:46;;;;;;;0.22;0.22;;;15.10;99.90;;;;;;5038947;28;20017;-81
2023/10/19 07:15:18;;;;;;;0.82;0.82;;;14.90;99.90;;;;;;5057105;28;20017;-81
2023/10/19 07:17:48;;;;;;;0.20;0.20;;;15.00;99.90;;;;;;5057394;28;20036;-81
2023/10/19 07:20:25;;;;;;;1.13;0.45;;;15.00;99.90;;;;;;5037287;28;20025;-81
2023/10/19 07:22:56;;;;;;;0.28;0.28;;;15.10;99.90;;;;;;5040048;28;20021;-81
2023/10/19 07:25:22;;;;;;;0.73;0.73;;;15.10;99.90;;;;;;5040894;28;20077;-81
2023/10/19 07:27:52;;;;;;;0.30;0.30;;;15.20;99.90;;;;;;5053934;28;20113;-81
2023/10/19 07:30:21;;;;;;;0.30;0.30;;;15.20;99.90;;;;;;5052030;28;20418;-79
2023/10/19 07:32:51;;;;;;;0.20;0.20;;;15.20;99.90;;;;;;5035580;28;20020;-80
2023/10/19 07:35:18;;;;;;;0.20;0.20;;;15.20;99.90;;;;;;5035317;28;20561;-82
2023/10/19 07:37:44;;;;;;;0.38;0.38;;;15.30;99.90;;;;;;5057555;28;20023;-81
2023/10/19 07:40:13;;;;;;;0.30;0.30;;;15.40;99.90;;;;;;5054256;28;20021;-81
2023/10/19 07:42:40;;;;;;;0.30;0.30;;;15.50;99.90;;;;;;5057352;28;20047;-81
2023/10/19 07:45:09;;;;;;;0.20;0.20;;;15.50;99.90;;;;;;5038122;28;20242;-81
2023/10/19 07:47:37;;;;;;;0.20;0.20;;;15.60;99.90;;;;;;5038833;28;20021;-79
2023/10/19 07:50:03;;;;;;;0.22;0.22;;;15.60;99.90;;;;;;5058056;28;20029;-81
2023/10/19 07:52:29;;;;;;;0.20;0.20;;;15.70;99.90;;;;;;5045076;28;20024;-81
2023/10/19 07:54:55;;;;;;;0.30;0.30;;;15.70;99.90;;;;;;5061055;28;20029;-81
2023/10/19 07:57:20;;;;;;;2.30;1.48;;;15.70;99.90;;;;;;5059824;28;20029;-81
2023/10/19 07:59:47;;;;;;;0.20;0.20;;;15.70;99.90;;;;;;5056479;28;20024;-81
2023/10/19 08:02:14;;;;;;;0.20;0.20;;;15.60;99.90;;;;;;5036876;28;20035;-83
2023/10/19 08:04:39;;;;;;;0.60;0.60;;;15.80;99.90;;;;;;5061639;28;20421;-80
2023/10/19 08:07:05;;;;;;;0.20;0.20;;;15.80;99.90;;;;;;5054216;28;20103;-81
2023/10/19 08:09:35;;;;;;;0.20;0.20;;;15.90;99.90;;;;;;5037721;28;20013;-81
2023/10/19 08:12:01;;;;;;;0.30;0.30;;;15.90;99.90;;;;;;5055156;28;20016;-81
2023/10/19 08:14:27;;;;;;;0.25;0.25;;;16.00;99.90;;;;;;5053703;28;20009;-81
2023/10/19 08:16:56;;;;;;;0.22;0.22;;;16.00;99.90;;;;;;5036333;28;20029;-82
2023/10/19 08:19:22;;;;;;;0.30;0.30;;;16.00;99.90;;;;;;5055645;28;20036;-83
2023/10/19 08:21:48;;;;;;;0.20;0.20;;;16.10;99.90;;;;;;5061706;28;20496;-82
2023/10/19 08:24:15;;;;;;;0.20;0.20;;;16.20;99.90;;;;;;5034568;28;20036;-81
2023/10/19 08:26:43;;;;;;;0.52;0.52;;;16.40;99.90;;;;;;5050402;28;20146;-83
2023/10/19 08:29:15;;;;;;;0.45;0.45;;;16.40;99.90;;;;;;5036276;28;20100;-83
2023/10/19 08:31:44;;;;;;;0.25;0.25;;;16.50;99.90;;;;;;5055641;28;20359;-82
2023/10/19 08:34:11;;;;;;;0.40;0.40;;;16.60;99.90;;;;;;5036223;28;20016;-82
2023/10/19 08:36:42;;;;;;;0.30;0.30;;;16.70;99.90;;;;;;5054851;28;20040;-82
2023/10/19 08:39:11;;;;;;;2.13;0.30;;;16.70;99.90;;;;;;5054695;28;20071;-83
2023/10/19 08:41:38;;;;;;;0.20;0.20;;;16.80;99.90;;;;;;5055441;28;20512;-83
2023/10/19 08:44:10;;;;;;;0.40;0.40;;;16.80;99.90;;;;;;5034444;28;20028;-83
2023/10/19 08:46:43;;;;;;;0.40;0.40;;;16.80;99.90;;;;;;5056060;28;20036;-83
2023/10/19 08:49:12;;;;;;;0.20;0.20;;;16.90;99.90;;;;;;5041618;28;20439;-83
2023/10/19 08:51:41;;;;;;;0.20;0.20;;;16.80;99.90;;;;;;5048491;28;20025;-83
2023/10/19 08:54:10;;;;;;;0.20;0.20;;;16.80;99.90;;;;;;5041018;28;20024;-83
2023/10/19 08:56:36;;;;;;;0.22;0.22;;;16.90;99.90;;;;;;5038888;28;20029;-83
2023/10/19 08:59:02;;;;;;;0.30;0.30;;;16.90;99.90;;;;;;5059609;28;20597;-83
2023/10/19 09:01:28;;;;;;;0.47;0.47;;;16.90;99.90;;;;;;5058951;28;20021;-83
2023/10/19 09:04:01;;;;;;;0.40;0.40;;;16.90;99.90;;;;;;5048309;28;20017;-83
2023/10/19 09:06:28;;;;;;;0.20;0.20;;;17.00;99.90;;;;;;5056190;28;20028;-82
2023/10/19 09:08:58;;;;;;;0.35;0.35;;;17.00;99.90;;;;;;5057570;28;20101;-83
2023/10/19 09:11:24;;;;;;;0.40;0.40;;;17.10;99.90;;;;;;5058769;28;20429;-83
2023/10/19 09:13:53;;;;;;;0.20;0.20;;;17.10;99.90;;;;;;5043227;28;20669;-83
2023/10/19 09:16:21;;;;;;;0.30;0.30;;;17.20;99.90;;;;;;5043353;28;20146;-83
2023/10/19 09:18:47;;;;;;;0.28;0.28;;;17.20;99.90;;;;;;5054619;28;20544;-83
2023/10/19 09:21:26;;;;;;;0.22;0.22;;;17.20;99.90;;;;;;5057909;28;20049;-82
2023/10/19 09:23:52;;;;;;;0.50;0.50;;;17.20;99.90;;;;;;5042516;28;20027;-83
2023/10/19 09:26:19;;;;;;;0.93;0.93;;;17.30;99.90;;;;;;5056352;28;20051;-83
2023/10/19 09:28:50;;;;;;;0.60;0.60;;;17.30;99.90;;;;;;5055668;28;20025;-81
2023/10/19 09:31:16;;;;;;;1.17;0.60;;;17.40;99.90;;;;;;5043067;28;20016;-83
2023/10/19 09:33:45;;;;;;;1.30;0.60;;;17.40;99.90;;;;;;5041112;28;20036;-82
2023/10/19 09:36:15;;;;;;;0.50;0.50;;;17.50;99.90;;;;;;5057579;28;20025;-83
2023/10/19 09:38:51;;;;;;;0.57;0.57;;;17.70;99.90;;;;;;5039961;28;20618;-83
2023/10/19 09:41:21;;;;;;;0.43;0.43;;;17.70;99.90;;;;;;5053727;28;20020;-83
2023/10/19 09:43:50;;;;;;;0.63;0.63;;;17.70;99.90;;;;;;5057747;28;20024;-83
2023/10/19 09:46:29;;;;;;;0.47;0.30;;;17.70;99.90;;;;;;5060409;28;20155;-83
2023/10/19 09:48:58;;;;;;;0.50;0.50;;;17.80;99.90;;;;;;5056820;28;20484;-83
2023/10/19 09:51:28;;;;;;;0.30;0.30;;;17.80;99.90;;;;;;5058937;28;20472;-83
2023/10/19 09:54:10;;;;;;;0.60;0.60;;;17.90;99.90;;;;;;5057298;28;20422;-83
2023/10/19 09:56:41;;;;;;;0.57;0.57;;;17.90;99.90;;;;;;5037721;28;20036;-83
2023/10/19 09:59:19;;;;;;;2.30;1.67;;;17.80;99.90;;;;;;5040148;28;20043;-82
2023/10/19 10:02:07;;;;;;;0.43;0.43;;;17.80;99.90;;;;;;5054516;28;20033;-82
2023/10/19 10:04:35;;;;;;;0.60;0.60;;;17.80;99.90;;;;;;5057276;28;20485;-82
2023/10/19 10:07:01;;;;;;;0.57;0.47;;;17.90;99.90;;;;;;5057068;28;20020;-83
2023/10/19 10:09:26;;;;;;;0.77;0.77;;;17.90;99.90;;;;;;5038586;28;20613;-82
2023/10/19 10:11:53;;;;;;;0.30;0.30;;;18.00;99.90;;;;;;5044454;28;20056;-82
2023/10/19 10:14:29;;;;;;;0.65;0.65;;;18.00;99.90;;;;;;5046087;28;20440;-82
2023/10/19 10:17:09;;;;;;;0.50;0.50;;;18.00;99.90;;;;;;5058524;28;20017;-82
2023/10/19 10:19:35;;;;;;;1.45;1.38;;;18.10;99.90;;;;;;5041282;28;20032;-82
2023/10/19 10:22:11;;;;;;;0.40;0.40;;;18.30;99.90;;;;;;5051099;28;20033;-83
2023/10/19 10:24:44;;;;;;;0.47;0.47;;;18.40;99.90;;;;;;5055858;28;20063;-82
2023/10/19 10:27:13;;;;;;;0.47;0.47;;;18.60;99.90;;;;;;5067867;28;20755;-82
2023/10/19 10:29:54;;;;;;;0.70;0.70;;;18.60;99.90;;;;;;5055319;28;20029;-82
2023/10/19 10:32:59;;;;;;;0.77;0.77;;;18.80;99.90;;;;;;5053574;28;20037;-83
2023/10/19 10:35:36;;;;;;;0.60;0.60;;;18.80;99.90;;;;;;4979605;28;20216;-82
2023/10/19 10:38:05;;;;;;;0.40;0.40;;;18.80;99.90;;;;;;4964484;28;20059;-82
2023/10/19 10:40:31;;;;;;;0.50;0.50;;;19.00;99.90;;;;;;4964557;28;20557;-82
2023/10/19 10:43:06;;;;;;;0.32;0.32;;;19.40;99.90;;;;;;4980226;28;20027;-83
2023/10/19 10:45:32;;;;;;;0.40;0.40;;;19.70;99.90;;;;;;4980576;28;20041;-83
2023/10/19 10:48:00;;;;;;;0.75;0.75;;;19.90;99.90;;;;;;4981842;28;20035;-84
2023/10/19 10:50:28;;;;;;;0.50;0.50;;;20.00;99.90;;;;;;4979075;28;20014;-83
2023/10/19 10:52:57;;;;;;;0.73;0.73;;;20.30;99.90;;;;;;4961428;28;20065;-83
2023/10/19 10:55:27;;;;;;;0.40;0.40;;;20.40;99.90;;;;;;4976253;28;20096;-82
2023/10/19 10:57:54;;;;;;;0.32;0.32;;;20.50;99.90;;;;;;4965112;28;20070;-83
2023/10/19 11:00:20;;;;;;;0.60;0.60;;;20.50;99.90;;;;;;4977090;28;20048;-83
2023/10/19 11:03:00;;;;;;;0.68;0.68;;;20.60;99.90;;;;;;4961439;28;20068;-81
2023/10/19 11:05:26;;;;;;;0.40;0.40;;;20.60;99.90;;;;;;4979431;28;20075;-83
2023/10/19 11:08:21;;;;;;;1.13;0.52;;;20.50;99.90;;;;;;5039508;28;20048;-83
2023/10/19 11:10:47;;;;;;;0.55;0.55;;;20.50;99.90;;;;;;5055321;28;20706;-83
2023/10/19 11:13:15;;;;;;;0.73;0.73;;;20.50;99.90;;;;;;5056712;28;20105;-83
2023/10/19 11:15:56;;;;;;;0.70;0.70;;;20.60;99.90;;;;;;5055408;28;20111;-83
2023/10/19 11:18:45;;;;;;;0.38;0.38;;;20.60;99.90;;;;;;5055841;28;20100;-83
2023/10/19 11:21:12;;;;;;;1.02;0.88;;;20.70;99.90;;;;;;5055993;28;20029;-83
2023/10/19 11:23:48;;;;;;;0.60;0.60;;;20.90;99.90;;;;;;5056704;28;20032;-82
2023/10/19 11:26:16;;;;;;;0.45;0.45;;;21.00;99.90;;;;;;5054553;28;20536;-83
2023/10/19 11:28:50;;;;;;;0.65;0.65;;;21.10;99.90;;;;;;5055016;28;20036;-82
2023/10/19 11:31:15;;;;;;;0.40;0.40;;;21.20;99.90;;;;;;5056152;28;20403;-83
2023/10/19 11:33:43;;;;;;;0.70;0.70;;;21.40;99.90;;;;;;5036719;28;20024;-83
2023/10/19 11:36:11;;;;;;;0.57;0.57;;;21.60;99.90;;;;;;5053075;28;20017;-84
2023/10/19 11:38:41;;;;;;;0.40;0.40;;;21.80;99.90;;;;;;5042948;28;20060;-83
2023/10/19 11:41:07;;;;;;;1.08;0.98;;;21.70;99.90;;;;;;5051118;28;20119;-83
2023/10/19 11:43:34;;;;;;;0.40;0.40;;;21.80;99.90;;;;;;5057592;28;20043;-83
2023/10/19 11:46:00;;;;;;;0.65;0.65;;;21.90;99.90;;;;;;5056347;28;20028;-83
2023/10/19 11:48:26;;;;;;;1.75;0.70;;;21.80;99.90;;;;;;5055484;28;20030;-83
2023/10/19 11:50:51;;;;;;;4.47;1.25;;;21.90;99.90;;;;;;5057781;28;20381;-83
2023/10/19 11:53:17;;;;;;;0.60;0.60;;;22.10;99.90;;;;;;5037702;28;20025;-83
2023/10/19 11:55:43;;;;;;;0.60;0.60;;;22.20;99.90;;;;;;5035567;28;20051;-83
2023/10/19 11:58:11;;;;;;;1.02;1.02;;;22.30;99.90;;;;;;5057872;28;20024;-83
2023/10/19 12:00:37;;;;;;;0.65;0.65;;;22.40;99.90;;;;;;5034965;28;20120;-83
2023/10/19 12:03:04;;;;;;;1.10;0.63;;;22.40;99.90;;;;;;5053422;28;20228;-83
2023/10/19 12:05:30;;;;;;;0.60;0.60;;;22.20;99.90;;;;;;5057068;28;20025;-83
2023/10/19 12:07:58;;;;;;;1.90;0.93;;;22.10;99.90;;;;;;5037117;28;20016;-84
2023/10/19 12:10:32;;;;;;;0.52;0.52;;;22.00;99.90;;;;;;5034401;28;20021;-83
2023/10/19 12:12:58;;;;;;;1.27;0.95;;;21.90;99.90;;;;;;5039035;28;20025;-83
2023/10/19 12:15:25;;;;;;;0.68;0.68;;;21.80;99.90;;;;;;5050827;28;20078;-84
2023/10/19 12:17:51;;;;;;;1.38;0.82;;;21.70;99.90;;;;;;5052284;28;20013;-83
2023/10/19 12:20:21;;;;;;;0.50;0.50;;;21.60;99.90;;;;;;5034098;28;20185;-84
2023/10/19 12:22:47;;;;;;;0.50;0.50;;;21.50;99.90;;;;;;5056026;28;20032;-84
2023/10/19 12:25:14;;;;;;;0.40;0.40;;;21.40;99.90;;;;;;5035571;28;20028;-84
2023/10/19 12:27:40;;;;;;;0.80;0.80;;;21.40;99.90;;;;;;5037992;28;20025;-82
2023/10/19 12:30:16;;;;;;;0.77;0.77;;;21.40;99.90;;;;;;5057140;28;20480;-83
2023/10/19 12:32:43;;;;;;;0.77;0.77;;;21.40;99.90;;;;;;5053416;28;20020;-83
2023/10/19 12:35:11;;;;;;;0.73;0.73;;;21.40;99.90;;;;;;5033267;28;20500;-84
2023/10/19 12:37:46;;;;;;;0.40;0.40;;;21.40;99.90;;;;;;5043806;28;20428;-84
2023/10/19 12:40:28;;;;;;;0.85;0.85;;;21.30;99.90;;;;;;5057463;28;20966;-83
2023/10/19 12:42:54;;;;;;;0.77;0.77;;;21.10;99.90;;;;;;5052639;28;20076;-83
2023/10/19 12:45:28;;;;;;;0.52;0.52;;;20.90;99.90;;;;;;5056897;28;20065;-83
2023/10/19 12:47:54;;;;;;;0.57;0.57;;;20.90;99.90;;;;;;5056291;28;20039;-84
2023/10/19 12:50:23;;;;;;;0.35;0.35;;;20.90;99.90;;;;;;5054107;28;20045;-84
2023/10/19 12:52:52;;;;;;;1.58;1.05;;;20.80;99.90;;;;;;5058624;28;20101;-83
2023/10/19 12:55:18;;;;;;;0.50;0.40;;;20.70;99.90;;;;;;5043049;28;20256;-84
2023/10/19 12:57:46;;;;;;;1.38;0.55;;;20.70;99.90;;;;;;5044525;28;20059;-84
2023/10/19 13:00:25;;;;;;;0.57;0.57;;;20.70;99.90;;;;;;5036773;28;20029;-84
2023/10/19 13:02:59;;;;;;;0.68;0.68;;;20.70;99.90;;;;;;5037111;28;20523;-84
2023/10/19 13:05:27;;;;;;;0.40;0.40;;;20.60;99.90;;;;;;5043239;28;20055;-83
2023/10/19 13:07:58;;;;;;;0.40;0.40;;;20.60;99.90;;;;;;5042240;28;20036;-83
2023/10/19 13:10:34;;;;;;;0.30;0.30;;;20.60;99.90;;;;;;5038176;28;20384;-83
2023/10/19 13:13:04;;;;;;;0.32;0.32;;;20.50;99.90;;;;;;5041874;28;20021;-84
2023/10/19 13:15:36;;;;;;;0.30;0.30;;;20.50;99.90;;;;;;5055496;28;20059;-83
2023/10/19 13:18:07;;;;;;;0.80;0.80;;;20.50;99.90;;;;;;5039882;28;20532;-82
2023/10/19 13:20:37;;;;;;;0.50;0.50;;;20.60;99.90;;;;;;5052105;28;20048;-83
2023/10/19 13:23:13;;;;;;;0.82;0.82;;;20.40;99.90;;;;;;5054439;28;20115;-83
2023/10/19 13:25:46;;;;;;;1.00;0.90;;;20.30;99.90;;;;;;5035907;28;20473;-82
2023/10/19 13:28:13;;;;;;;0.50;0.50;;;20.20;99.90;;;;;;5043515;28;20032;-83